KNEW/NEW METAR and TAF weather

Enter ICAO airport designator
Station Type Date Time Source
KNEW METAR 2020/04/03 06:53 UTC NOAA

KNEW 030653Z AUTO RMK AO2 SLPNO PWINO $


Station Type Date Time Source
KNEW Decoded METAR 2020/04/03 06:53 UTC NOAA

NEW ORLEANS LAKEFRONT AIRPORT , LA, United States (KNEW) 30-03N 90-02W 3M
Apr 03, 2020 - 02:53 AM EDT / 2020.04.03 0653 UTC
ob: KNEW 030653Z AUTO RMK AO2 SLPNO PWINO
cycle: 7

Station Type Date Time Source
KNEW TAF 2020/04/03 06:22 UTC NOAA

TAF KNEW 030520Z 0306/0406 14005KT P6SM BKN200

Example: see airport list